createdAt,value
2017-07-19T00:00:35.985Z,1002.0
2017-07-19T00:01:37.552Z,1002.1
2017-07-19T00:02:38.975Z,1002.1
2017-07-19T00:03:40.365Z,1002.2
2017-07-19T00:04:41.813Z,1002.2
2017-07-19T00:05:43.218Z,1002.2
2017-07-19T00:06:44.635Z,1002.2
2017-07-19T00:07:46.121Z,1002.2
2017-07-19T00:08:47.526Z,1002.2
2017-07-19T00:09:49.007Z,1002.2
2017-07-19T00:10:50.416Z,1002.2
2017-07-19T00:11:51.905Z,1002.2
2017-07-19T00:12:53.312Z,1002.3
2017-07-19T00:13:54.733Z,1002.4
2017-07-19T00:14:56.206Z,1002.4
2017-07-19T00:15:57.608Z,1002.4
2017-07-19T00:16:59.016Z,1002.4
2017-07-19T00:18:00.528Z,1002.5
2017-07-19T00:19:01.945Z,1002.5
2017-07-19T00:20:03.347Z,1002.4
2017-07-19T00:21:04.849Z,1002.4
2017-07-19T00:22:06.257Z,1002.4
2017-07-19T00:23:07.661Z,1002.3
2017-07-19T00:24:09.168Z,1002.3
2017-07-19T00:25:10.575Z,1002.4
2017-07-19T00:26:11.978Z,1002.3
2017-07-19T00:27:13.489Z,1002.3
2017-07-19T00:28:14.907Z,1002.2
2017-07-19T00:29:16.319Z,1002.2
2017-07-19T00:30:17.830Z,1002.1
2017-07-19T00:31:19.235Z,1002.2
2017-07-19T00:32:20.641Z,1002.1
2017-07-19T00:33:22.152Z,1002.3
2017-07-19T00:34:23.552Z,1002.3
2017-07-19T00:35:25.102Z,1002.4
2017-07-19T00:36:26.502Z,1002.4
2017-07-19T00:37:27.993Z,1002.4
2017-07-19T00:38:29.403Z,1002.6
2017-07-19T00:39:30.809Z,1002.6
2017-07-19T00:40:32.317Z,1002.6
2017-07-19T00:41:33.716Z,1002.6
2017-07-19T00:42:35.148Z,1002.7
2017-07-19T00:43:36.644Z,1002.8
2017-07-19T00:44:38.052Z,1002.9
2017-07-19T00:45:39.458Z,1002.9
2017-07-19T00:46:40.959Z,1003.0
2017-07-19T00:47:42.371Z,1003.0
2017-07-19T00:48:43.805Z,1003.1
2017-07-19T00:49:45.302Z,1003.1
2017-07-19T00:50:46.703Z,1003.1
2017-07-19T00:51:48.107Z,1003.0
2017-07-19T00:52:49.598Z,1003.0
2017-07-19T00:53:51.003Z,1003.0
2017-07-19T00:54:52.487Z,1002.9
2017-07-19T00:55:53.920Z,1002.9
2017-07-19T00:56:55.364Z,1002.9
2017-07-19T00:57:56.772Z,1002.9
2017-07-19T00:58:58.178Z,1002.8
2017-07-19T00:59:59.681Z,1002.9
2017-07-19T01:01:01.090Z,1002.8
2017-07-19T01:02:02.525Z,1002.9
2017-07-19T01:03:04.000Z,1002.8
2017-07-19T01:04:05.583Z,1002.7
2017-07-19T01:05:07.049Z,1002.7
2017-07-19T01:06:08.527Z,1002.6
2017-07-19T01:07:10.010Z,1002.7
2017-07-19T01:08:11.424Z,1002.7
2017-07-19T01:09:12.874Z,1002.8
2017-07-19T01:10:14.271Z,1002.8
2017-07-19T01:11:15.740Z,1002.9
2017-07-19T01:12:17.169Z,1002.9
2017-07-19T01:13:18.575Z,1002.9
2017-07-19T01:14:19.977Z,1003.0
2017-07-19T01:15:21.489Z,1003.0
2017-07-19T01:16:22.908Z,1002.9
2017-07-19T01:17:24.374Z,1002.8
2017-07-19T01:18:25.796Z,1002.9
2017-07-19T01:19:27.201Z,1002.9
2017-07-19T01:20:28.690Z,1003.0
2017-07-19T01:21:30.098Z,1002.9
2017-07-19T01:22:31.503Z,1003.0
2017-07-19T01:23:33.014Z,1003.0
2017-07-19T01:24:34.419Z,1002.9
2017-07-19T01:25:35.898Z,1002.8
2017-07-19T01:26:37.304Z,1002.9
2017-07-19T01:27:38.771Z,1002.9
2017-07-19T01:28:40.176Z,1002.9
2017-07-19T01:29:41.656Z,1002.9
2017-07-19T01:30:43.081Z,1002.9
2017-07-19T01:31:44.545Z,1002.9
2017-07-19T01:32:45.947Z,1003.0
2017-07-19T01:33:47.355Z,1002.9
2017-07-19T01:34:48.856Z,1002.9
2017-07-19T01:35:50.261Z,1002.9
2017-07-19T01:36:51.671Z,1002.8
2017-07-19T01:37:53.175Z,1002.8
2017-07-19T01:38:54.578Z,1002.8
2017-07-19T01:39:55.994Z,1002.9
2017-07-19T01:40:57.497Z,1002.8
2017-07-19T01:41:58.901Z,1002.8
2017-07-19T01:43:00.306Z,1002.9
2017-07-19T01:44:01.838Z,1002.9
2017-07-19T01:45:03.251Z,1002.9
2017-07-19T01:46:04.648Z,1002.8
2017-07-19T01:47:06.139Z,1002.8
2017-07-19T01:48:07.545Z,1002.8
2017-07-19T01:49:08.949Z,1002.7
2017-07-19T01:50:10.456Z,1002.6
2017-07-19T01:51:11.879Z,1002.7
2017-07-19T01:52:13.340Z,1002.7
2017-07-19T01:53:14.741Z,1002.6
2017-07-19T01:54:16.221Z,1002.5
2017-07-19T01:55:17.625Z,1002.4
2017-07-19T01:56:19.101Z,1002.3
2017-07-19T01:57:20.508Z,1002.2
2017-07-19T01:58:21.982Z,1002.1
2017-07-19T01:59:23.379Z,1002.1
2017-07-19T02:00:24.862Z,1002.0
2017-07-19T02:01:26.279Z,1002.0
2017-07-19T02:02:27.756Z,1002.1
2017-07-19T02:03:29.161Z,1002.1
2017-07-19T02:04:30.590Z,1002.2
2017-07-19T02:05:31.992Z,1002.2
2017-07-19T02:06:33.393Z,1002.2
2017-07-19T02:07:34.842Z,1002.2
2017-07-19T02:08:36.245Z,1002.2
2017-07-19T02:09:37.754Z,1002.2
2017-07-19T02:10:39.136Z,1002.3
2017-07-19T02:11:40.631Z,1002.3
2017-07-19T02:12:42.036Z,1002.3
2017-07-19T02:13:43.484Z,1002.3
2017-07-19T02:14:44.884Z,1002.2
2017-07-19T02:15:46.289Z,1002.3
2017-07-19T02:16:47.804Z,1002.3
2017-07-19T02:17:49.232Z,1002.3
2017-07-19T02:18:50.636Z,1002.3
2017-07-19T02:19:52.126Z,1002.2
2017-07-19T02:20:53.542Z,1002.2
2017-07-19T02:21:54.947Z,1002.2
2017-07-19T02:22:56.460Z,1002.2
2017-07-19T02:23:57.867Z,1002.2
2017-07-19T02:24:59.268Z,1002.1
2017-07-19T02:26:00.768Z,1002.1
2017-07-19T02:27:02.174Z,1002.1
2017-07-19T02:28:03.648Z,1002.1
2017-07-19T02:29:05.068Z,1002.0
2017-07-19T02:30:06.496Z,1002.0
2017-07-19T02:31:07.969Z,1002.0
2017-07-19T02:32:09.408Z,1002.0
2017-07-19T02:33:10.821Z,1002.0
2017-07-19T02:34:12.294Z,1001.9
2017-07-19T02:35:13.709Z,1001.9
2017-07-19T02:36:15.169Z,1001.9
2017-07-19T02:37:16.581Z,1001.8
2017-07-19T02:38:18.052Z,1001.9
2017-07-19T02:39:19.481Z,1001.8
2017-07-19T02:40:20.891Z,1001.8
2017-07-19T02:41:22.374Z,1001.8
2017-07-19T02:42:23.772Z,1001.8
2017-07-19T02:43:25.177Z,1001.8
2017-07-19T02:44:26.711Z,1001.8
2017-07-19T02:45:28.116Z,1001.8
2017-07-19T02:46:29.592Z,1001.8
2017-07-19T02:47:31.000Z,1001.8
2017-07-19T02:48:32.454Z,1001.7
2017-07-19T02:49:33.857Z,1001.7
2017-07-19T02:50:35.269Z,1001.7
2017-07-19T02:51:36.782Z,1001.7
2017-07-19T02:52:38.188Z,1001.7
2017-07-19T02:53:39.611Z,1001.6
2017-07-19T02:54:41.100Z,1001.7
2017-07-19T02:55:42.500Z,1001.6
2017-07-19T02:56:43.986Z,1001.7
2017-07-19T02:57:45.388Z,1001.7
2017-07-19T02:58:46.864Z,1001.6
2017-07-19T02:59:48.266Z,1001.6
2017-07-19T03:00:49.756Z,1001.6
2017-07-19T03:01:51.164Z,1001.6
2017-07-19T03:02:52.623Z,1001.6
2017-07-19T03:03:54.020Z,1001.6
2017-07-19T03:04:55.420Z,1001.6
2017-07-19T03:05:56.840Z,1001.5
2017-07-19T03:06:58.239Z,1001.5
2017-07-19T03:07:59.656Z,1001.5
2017-07-19T03:09:01.169Z,1001.4
2017-07-19T03:10:02.561Z,1001.5
2017-07-19T03:11:03.959Z,1001.5
2017-07-19T03:12:05.480Z,1001.5
2017-07-19T03:13:06.902Z,1001.5
2017-07-19T03:14:08.303Z,1001.4
2017-07-19T03:15:09.802Z,1001.5
2017-07-19T03:16:11.209Z,1001.5
2017-07-19T03:17:12.681Z,1001.4
2017-07-19T03:18:14.080Z,1001.4
2017-07-19T03:19:15.482Z,1001.4
2017-07-19T03:20:16.926Z,1001.3
2017-07-19T03:21:18.339Z,1001.3
2017-07-19T03:22:19.745Z,1001.3
2017-07-19T03:23:21.225Z,1001.3
2017-07-19T03:24:22.631Z,1001.2
2017-07-19T03:25:24.032Z,1001.3
2017-07-19T03:26:25.548Z,1001.2
2017-07-19T03:27:26.952Z,1001.2
2017-07-19T03:28:28.356Z,1001.2
2017-07-19T03:29:29.950Z,1001.2
2017-07-19T03:30:31.363Z,1001.1
2017-07-19T03:31:32.763Z,1001.1
2017-07-19T03:32:34.213Z,1001.1
2017-07-19T03:33:35.621Z,1001.1
2017-07-19T03:34:37.019Z,1001.1
2017-07-19T03:35:38.526Z,1001.1
2017-07-19T03:36:39.911Z,1001.1
2017-07-19T03:37:41.384Z,1001.1
2017-07-19T03:38:42.789Z,1001.1
2017-07-19T03:39:44.191Z,1001.1
2017-07-19T03:40:46.679Z,1001.2
2017-07-19T03:41:48.101Z,1001.3
2017-07-19T03:42:49.528Z,1001.3
2017-07-19T03:43:50.948Z,1001.3
2017-07-19T03:44:52.353Z,1001.3
2017-07-19T03:45:53.759Z,1001.3
2017-07-19T03:46:55.268Z,1001.4
2017-07-19T03:47:56.693Z,1001.3
2017-07-19T03:48:58.111Z,1001.3
2017-07-19T03:49:59.603Z,1001.3
2017-07-19T03:51:01.008Z,1001.4
2017-07-19T03:52:02.445Z,1001.4
2017-07-19T03:53:03.910Z,1001.4
2017-07-19T03:54:05.327Z,1001.5
2017-07-19T03:55:06.767Z,1001.5
2017-07-19T03:56:08.237Z,1001.6
2017-07-19T03:57:09.647Z,1001.6
2017-07-19T03:58:11.061Z,1001.7
2017-07-19T03:59:12.552Z,1001.7
2017-07-19T04:00:13.962Z,1001.7
2017-07-19T04:01:15.375Z,1001.7
2017-07-19T04:02:16.903Z,1001.8
2017-07-19T04:03:18.318Z,1001.8
2017-07-19T04:04:19.740Z,1001.9
2017-07-19T04:05:21.214Z,1002.0
2017-07-19T04:06:22.622Z,1002.0
2017-07-19T04:07:24.077Z,1002.0
2017-07-19T04:08:25.496Z,1002.1
2017-07-19T04:09:26.983Z,1002.2
2017-07-19T04:10:28.387Z,1002.1
2017-07-19T04:11:29.867Z,1002.2
2017-07-19T04:12:31.270Z,1002.3
2017-07-19T04:13:32.714Z,1002.2
2017-07-19T04:14:34.126Z,1002.3
2017-07-19T04:15:35.532Z,1002.3
2017-07-19T04:16:37.062Z,1002.4
2017-07-19T04:17:38.467Z,1002.5
2017-07-19T04:18:39.894Z,1002.5
2017-07-19T04:19:41.361Z,1002.6
2017-07-19T04:20:42.772Z,1002.6
2017-07-19T04:21:44.176Z,1002.6
2017-07-19T04:22:45.678Z,1002.7
2017-07-19T04:23:47.126Z,1002.8
2017-07-19T04:24:48.565Z,1002.9
2017-07-19T04:25:49.985Z,1003.0
2017-07-19T04:26:51.402Z,1003.1
2017-07-19T04:27:52.883Z,1003.2
2017-07-19T04:28:54.296Z,1003.2
2017-07-19T04:29:55.699Z,1003.3
2017-07-19T04:30:57.232Z,1003.4
2017-07-19T04:31:58.633Z,1003.6
2017-07-19T04:33:00.061Z,1003.6
2017-07-19T04:34:01.528Z,1003.7
2017-07-19T04:35:02.935Z,1003.8
2017-07-19T04:36:04.345Z,1003.8
2017-07-19T04:37:05.837Z,1003.9
2017-07-19T04:38:07.266Z,1003.9
2017-07-19T04:39:08.727Z,1004.0
2017-07-19T04:40:10.164Z,1004.1
2017-07-19T04:41:11.608Z,1004.2
2017-07-19T04:42:13.015Z,1004.3
2017-07-19T04:43:14.481Z,1004.4
2017-07-19T04:44:15.898Z,1004.5
2017-07-19T04:45:17.366Z,1004.6
2017-07-19T04:46:18.778Z,1004.7
2017-07-19T04:47:20.253Z,1004.8
2017-07-19T04:48:21.666Z,1004.9
2017-07-19T04:49:25.630Z,1005.0
2017-07-19T04:50:27.042Z,1005.1
2017-07-19T04:51:28.451Z,1005.2
2017-07-19T04:52:29.909Z,1005.4
2017-07-19T04:53:31.317Z,1005.4
2017-07-19T04:54:32.753Z,1005.5
2017-07-19T04:55:34.224Z,1005.7
2017-07-19T04:56:35.664Z,1005.8
2017-07-19T04:57:37.108Z,1005.9
2017-07-19T04:58:38.543Z,1006.0
2017-07-19T04:59:39.989Z,1006.2
2017-07-19T05:00:41.395Z,1006.3
2017-07-19T05:01:42.804Z,1006.4
2017-07-19T05:02:44.310Z,1006.5
2017-07-19T05:03:45.775Z,1006.7
2017-07-19T05:04:47.188Z,1006.8
2017-07-19T05:05:48.634Z,1006.9
2017-07-19T05:06:50.038Z,1007.0
2017-07-19T05:07:51.445Z,1007.1
2017-07-19T05:08:52.955Z,1007.3
2017-07-19T05:09:54.675Z,1007.4
2017-07-19T05:10:56.083Z,1007.6
2017-07-19T05:11:57.598Z,1007.6
2017-07-19T05:12:58.999Z,1007.7
2017-07-19T05:14:00.461Z,1007.7
2017-07-19T05:15:01.871Z,1007.8
2017-07-19T05:16:03.340Z,1007.9
2017-07-19T05:17:04.750Z,1008.1
2017-07-19T05:18:06.226Z,1008.2
2017-07-19T05:19:07.630Z,1008.4
2017-07-19T05:20:09.105Z,1008.6
2017-07-19T05:21:10.510Z,1008.7
2017-07-19T05:22:12.002Z,1008.9
2017-07-19T05:23:13.405Z,1009.0
2017-07-19T05:24:14.868Z,1009.2
2017-07-19T05:25:16.276Z,1009.4
2017-07-19T05:26:17.770Z,1009.5
2017-07-19T05:27:19.151Z,1009.5
2017-07-19T05:28:20.634Z,1009.6
2017-07-19T05:29:22.051Z,1009.7
2017-07-19T05:30:23.507Z,1009.7
2017-07-19T05:31:24.917Z,1009.9
2017-07-19T05:32:26.385Z,1010.0
2017-07-19T05:33:27.799Z,1010.2
2017-07-19T05:34:29.267Z,1010.3
2017-07-19T05:35:30.674Z,1010.4
2017-07-19T05:36:32.081Z,1010.4
2017-07-19T05:37:33.586Z,1010.4
2017-07-19T05:38:34.997Z,1010.5
2017-07-19T05:39:36.412Z,1010.6
2017-07-19T05:40:37.910Z,1010.7
2017-07-19T05:41:39.315Z,1010.6
2017-07-19T05:42:40.739Z,1010.6
2017-07-19T05:43:42.148Z,1010.8
2017-07-19T05:44:43.669Z,1010.8
2017-07-19T05:45:45.085Z,1010.9
2017-07-19T05:46:46.554Z,1011.0
2017-07-19T05:47:48.051Z,1011.1
2017-07-19T05:48:49.460Z,1011.2
2017-07-19T05:49:51.076Z,1011.2
2017-07-19T05:50:52.485Z,1011.1
2017-07-19T05:51:54.168Z,1011.2
2017-07-19T05:52:55.576Z,1011.3
2017-07-19T05:53:57.247Z,1011.4
2017-07-19T05:54:58.661Z,1011.4
2017-07-19T05:56:00.333Z,1011.4
2017-07-19T05:57:01.739Z,1011.5
2017-07-19T05:58:03.148Z,1011.6
2017-07-19T05:59:04.858Z,1011.7
2017-07-19T06:00:06.268Z,1011.8
2017-07-19T06:01:07.680Z,1012.0
2017-07-19T06:02:09.396Z,1012.2
2017-07-19T06:03:10.823Z,1012.2
2017-07-19T06:04:12.472Z,1012.3
2017-07-19T06:05:13.879Z,1012.4
2017-07-19T06:06:15.448Z,1012.5
2017-07-19T06:07:16.867Z,1012.7
2017-07-19T06:08:18.280Z,1012.8
2017-07-19T06:09:19.703Z,1012.9
2017-07-19T06:10:21.105Z,1013.0
2017-07-19T06:11:22.517Z,1013.1
2017-07-19T06:12:23.992Z,1013.3
2017-07-19T06:13:25.405Z,1013.4
2017-07-19T06:14:26.810Z,1013.6
2017-07-19T06:15:28.319Z,1013.7
2017-07-19T06:16:29.730Z,1013.9
2017-07-19T06:17:31.137Z,1014.1
2017-07-19T06:18:32.638Z,1014.2
2017-07-19T06:19:34.043Z,1014.3
2017-07-19T06:20:35.514Z,1014.6
2017-07-19T06:21:36.922Z,1014.7
2017-07-19T06:22:38.395Z,1014.8
2017-07-19T06:23:39.805Z,1015.0
2017-07-19T06:24:41.276Z,1015.1
2017-07-19T06:25:42.682Z,1015.3
2017-07-19T06:26:44.232Z,1015.4
2017-07-19T06:27:45.639Z,1015.5
2017-07-19T06:28:47.060Z,1015.5
2017-07-19T06:29:48.594Z,1015.6
2017-07-19T06:30:50.014Z,1015.8
2017-07-19T06:31:51.415Z,1015.9
2017-07-19T06:32:52.910Z,1015.8
2017-07-19T06:33:54.315Z,1015.9
2017-07-19T06:34:55.725Z,1015.9
2017-07-19T06:35:57.226Z,1016.0
2017-07-19T06:36:58.680Z,1016.0
2017-07-19T06:38:00.084Z,1016.1
2017-07-19T06:39:01.554Z,1016.2
2017-07-19T06:40:02.966Z,1016.4
2017-07-19T06:41:04.432Z,1016.5
2017-07-19T06:42:05.842Z,1016.6
2017-07-19T06:43:07.291Z,1016.7
2017-07-19T06:44:09.770Z,1016.9
2017-07-19T06:45:11.183Z,1017.2
2017-07-19T06:46:12.593Z,1017.4
2017-07-19T06:47:14.096Z,1017.7
2017-07-19T06:48:15.502Z,1017.9
2017-07-19T06:49:16.972Z,1018.1
2017-07-19T06:50:18.383Z,1018.2
2017-07-19T06:51:19.967Z,1018.2
2017-07-19T06:52:21.388Z,1018.4
2017-07-19T06:53:22.838Z,1018.5
2017-07-19T06:54:24.245Z,1018.7
2017-07-19T06:55:25.713Z,1019.0
2017-07-19T06:56:27.125Z,1019.3
2017-07-19T06:57:28.615Z,1019.5
2017-07-19T06:58:30.026Z,1019.7
2017-07-19T06:59:32.509Z,1019.9
2017-07-19T07:00:33.911Z,1020.2
2017-07-19T07:01:35.380Z,1020.5
2017-07-19T07:02:36.792Z,1020.8
2017-07-19T07:03:38.260Z,1021.0
2017-07-19T07:04:39.673Z,1021.3
2017-07-19T07:05:41.138Z,1021.6
2017-07-19T07:06:42.552Z,1021.8
2017-07-19T07:07:43.967Z,1022.1
2017-07-19T07:08:45.375Z,1022.3
2017-07-19T07:09:46.815Z,1022.5
2017-07-19T07:10:48.226Z,1022.8
2017-07-19T07:11:49.687Z,1023.0
2017-07-19T07:12:51.092Z,1023.1
2017-07-19T07:13:52.564Z,1023.2
2017-07-19T07:14:53.971Z,1023.2
2017-07-19T07:15:55.448Z,1023.4
2017-07-19T07:16:56.884Z,1023.6
2017-07-19T07:17:58.330Z,1023.9
2017-07-19T07:18:59.738Z,1024.1
2017-07-19T07:20:01.211Z,1024.4
2017-07-19T07:21:02.614Z,1024.7
2017-07-19T07:22:04.090Z,1024.8
2017-07-19T07:23:05.504Z,1025.0
2017-07-19T07:24:06.979Z,1025.2
2017-07-19T07:25:08.386Z,1025.4
2017-07-19T07:26:09.893Z,1025.6
2017-07-19T07:27:11.322Z,1025.4
2017-07-19T07:28:12.732Z,1025.5
2017-07-19T07:29:14.169Z,1025.5
2017-07-19T07:30:15.577Z,1025.7
2017-07-19T07:31:16.992Z,1025.8
2017-07-19T07:32:18.491Z,1025.9
2017-07-19T07:33:19.901Z,1026.1
2017-07-19T07:34:21.319Z,1026.3
2017-07-19T07:35:22.812Z,1026.5
2017-07-19T07:36:24.221Z,1026.8
2017-07-19T07:37:25.629Z,1027.1
2017-07-19T07:38:27.130Z,1027.3
2017-07-19T07:39:28.542Z,1027.5
2017-07-19T07:40:30.086Z,1027.7
2017-07-19T07:41:31.501Z,1028.0
2017-07-19T07:42:33.011Z,1028.3
2017-07-19T07:43:34.431Z,1028.6
2017-07-19T07:44:35.888Z,1028.9
2017-07-19T07:45:37.303Z,1029.2
2017-07-19T07:46:38.753Z,1029.5
2017-07-19T07:47:40.164Z,1029.7
2017-07-19T07:48:41.574Z,1030.0
2017-07-19T07:49:43.075Z,1030.3
2017-07-19T07:50:44.486Z,1030.7
2017-07-19T07:51:45.891Z,1031.0
2017-07-19T07:52:47.313Z,1031.3
2017-07-19T07:53:48.723Z,1031.5
2017-07-19T07:54:50.165Z,1031.7
2017-07-19T07:55:51.613Z,1031.9
2017-07-19T07:56:53.026Z,1032.2
2017-07-19T07:57:54.456Z,1032.4
2017-07-19T07:58:55.934Z,1032.4
2017-07-19T07:59:57.344Z,1032.3
2017-07-19T08:00:58.816Z,1032.5
2017-07-19T08:02:00.231Z,1032.6
2017-07-19T08:03:01.693Z,1032.7
2017-07-19T08:04:03.107Z,1032.8
2017-07-19T08:05:04.580Z,1033.0
2017-07-19T08:06:05.992Z,1033.1
2017-07-19T08:07:07.459Z,1033.2
2017-07-19T08:08:08.865Z,1033.2
2017-07-19T08:09:10.336Z,1033.4
2017-07-19T08:10:11.751Z,1033.6
2017-07-19T08:11:13.218Z,1033.7
2017-07-19T08:12:14.636Z,1033.9
2017-07-19T08:13:16.099Z,1034.3
2017-07-19T08:14:17.516Z,1034.5
2017-07-19T08:15:18.986Z,1034.6
2017-07-19T08:16:20.414Z,1034.9
2017-07-19T08:17:21.854Z,1035.3
2017-07-19T08:18:23.275Z,1035.6
2017-07-19T08:19:24.687Z,1035.9
2017-07-19T08:20:26.180Z,1036.2
2017-07-19T08:21:27.593Z,1036.1
2017-07-19T08:22:29.002Z,1036.3
2017-07-19T08:23:30.501Z,1036.6
2017-07-19T08:24:31.913Z,1036.7
2017-07-19T08:25:33.382Z,1036.8
2017-07-19T08:26:34.796Z,1036.8
2017-07-19T08:27:36.294Z,1036.9
2017-07-19T08:28:37.720Z,1037.0
2017-07-19T08:29:39.131Z,1037.0
2017-07-19T08:30:40.583Z,1036.9
2017-07-19T08:31:42.024Z,1036.7
2017-07-19T08:32:43.441Z,1036.6
2017-07-19T08:33:44.861Z,1036.8
2017-07-19T08:34:46.270Z,1036.9
2017-07-19T08:35:47.683Z,1036.9
2017-07-19T08:36:49.105Z,1037.0
2017-07-19T08:37:50.526Z,1037.0
2017-07-19T08:38:51.949Z,1037.2
2017-07-19T08:39:53.376Z,1037.0
2017-07-19T08:40:54.786Z,1037.1
2017-07-19T08:41:56.207Z,1036.9
2017-07-19T08:42:57.621Z,1036.8
2017-07-19T08:43:59.048Z,1036.6
2017-07-19T08:45:00.475Z,1036.7
2017-07-19T08:46:01.892Z,1036.9
2017-07-19T08:47:03.311Z,1037.2
2017-07-19T08:48:04.728Z,1037.4
2017-07-19T08:49:06.139Z,1037.5
2017-07-19T08:50:07.571Z,1037.8
2017-07-19T08:51:08.991Z,1037.9
2017-07-19T08:52:10.405Z,1037.9
2017-07-19T08:53:11.820Z,1038.1
2017-07-19T08:54:13.239Z,1038.1
2017-07-19T08:55:14.652Z,1038.2
2017-07-19T08:56:16.082Z,1038.1
2017-07-19T08:57:17.497Z,1038.3
2017-07-19T08:58:18.959Z,1038.6
2017-07-19T08:59:20.387Z,1038.8
2017-07-19T09:00:21.808Z,1038.9
2017-07-19T09:01:23.230Z,1039.1
2017-07-19T09:02:24.723Z,1039.2
2017-07-19T09:03:26.135Z,1039.3
2017-07-19T09:04:27.809Z,1039.4
2017-07-19T09:05:29.226Z,1039.6
2017-07-19T09:06:30.896Z,1039.6
2017-07-19T09:07:32.314Z,1039.7
2017-07-19T09:08:33.977Z,1040.1
2017-07-19T09:09:35.398Z,1040.0
2017-07-19T09:10:37.063Z,1040.2
2017-07-19T09:11:38.478Z,1040.5
2017-07-19T09:12:40.151Z,1040.9
2017-07-19T09:13:41.573Z,1041.2
2017-07-19T09:14:42.981Z,1041.4
2017-07-19T09:15:44.683Z,1041.6
2017-07-19T09:16:46.095Z,1041.8
2017-07-19T09:17:47.494Z,1042.0
2017-07-19T09:18:48.995Z,1042.0
2017-07-19T09:19:50.413Z,1042.3
2017-07-19T09:20:51.828Z,1042.9
2017-07-19T09:21:53.316Z,1043.5
2017-07-19T09:22:54.728Z,1044.4
2017-07-19T09:23:56.144Z,1045.2
2017-07-19T09:24:57.637Z,1045.9
2017-07-19T09:25:59.050Z,1046.8
2017-07-19T09:27:00.468Z,1046.6
2017-07-19T09:28:02.164Z,1045.6
2017-07-19T09:29:03.586Z,1045.4
2017-07-19T09:30:04.999Z,1046.4
2017-07-19T09:31:06.687Z,1047.0
2017-07-19T09:32:08.102Z,1047.0
2017-07-19T09:33:09.520Z,1047.4
2017-07-19T09:34:11.008Z,1047.7
2017-07-19T09:35:12.425Z,1048.3
2017-07-19T09:36:15.834Z,1048.7
2017-07-19T09:37:17.296Z,1049.0
2017-07-19T09:38:18.818Z,1049.8
2017-07-19T09:39:20.231Z,1050.8
2017-07-19T09:40:21.657Z,1051.8
2017-07-19T09:41:23.344Z,1053.0
2017-07-19T09:42:24.762Z,1053.6
2017-07-19T09:43:26.190Z,1054.3
2017-07-19T09:44:27.871Z,1055.2
2017-07-19T09:45:29.284Z,1056.1
2017-07-19T09:46:30.976Z,1057.3
2017-07-19T09:47:32.398Z,1058.7
2017-07-19T09:48:34.042Z,1060.3
2017-07-19T09:49:35.459Z,1061.7
2017-07-19T09:50:36.880Z,1062.8
2017-07-19T09:51:38.568Z,1064.0
2017-07-19T09:52:39.986Z,1064.8
2017-07-19T09:53:41.400Z,1065.6
2017-07-19T09:54:47.808Z,1066.7
2017-07-19T09:55:49.229Z,1067.8
2017-07-19T09:56:50.887Z,1069.1
2017-07-19T09:57:52.309Z,1069.8
2017-07-19T09:58:53.974Z,1070.8
2017-07-19T09:59:55.391Z,1071.9
2017-07-19T10:00:56.846Z,1076.7
2017-07-19T10:01:58.266Z,1088.1
2017-07-19T10:02:59.683Z,1097.6
2017-07-19T10:04:01.178Z,1103.6
2017-07-19T10:05:02.599Z,1101.2
2017-07-19T10:06:04.056Z,1101.0
2017-07-19T10:07:05.702Z,1100.6
2017-07-19T10:08:07.118Z,1099.2
2017-07-19T10:09:08.535Z,1097.2
2017-07-19T10:10:10.023Z,1095.7
2017-07-19T10:11:11.445Z,1096.1
2017-07-19T10:12:12.865Z,1090.5
2017-07-19T10:13:14.353Z,1087.2
2017-07-19T10:14:15.775Z,1085.6
2017-07-19T10:15:17.188Z,1086.1
2017-07-19T10:16:18.868Z,1087.0
2017-07-19T10:17:20.289Z,1087.7
2017-07-19T10:18:21.706Z,1088.4
2017-07-19T10:19:23.191Z,1089.1
2017-07-19T10:20:25.204Z,1088.8
2017-07-19T10:21:26.627Z,1089.1
2017-07-19T10:22:29.148Z,1089.4
2017-07-19T10:23:30.530Z,1089.8
2017-07-19T10:24:31.964Z,1091.6
2017-07-19T10:25:33.924Z,1091.0
2017-07-19T10:26:35.334Z,1094.6
2017-07-19T10:27:36.935Z,1090.2
2017-07-19T10:28:38.387Z,1089.9
2017-07-19T10:29:40.059Z,1090.7
2017-07-19T10:30:41.527Z,1093.7
2017-07-19T10:31:43.180Z,1094.2
2017-07-19T10:32:44.606Z,1089.7
2017-07-19T10:33:46.200Z,1084.4
2017-07-19T10:34:47.620Z,1083.3
2017-07-19T10:35:49.083Z,1082.4
2017-07-19T10:36:50.517Z,1081.3
2017-07-19T10:37:52.155Z,1080.6
2017-07-19T10:38:53.572Z,1079.6
2017-07-19T10:39:55.105Z,1078.6
2017-07-19T10:40:56.504Z,1077.7
2017-07-19T10:41:57.924Z,1076.7
2017-07-19T10:42:59.569Z,1075.4
2017-07-19T10:44:00.988Z,1074.3
2017-07-19T10:45:02.398Z,1073.5
2017-07-19T10:46:03.873Z,1073.2
2017-07-19T10:47:05.685Z,1072.8
2017-07-19T10:48:07.163Z,1072.0
2017-07-19T10:49:08.583Z,1071.8
2017-07-19T10:50:10.044Z,1071.7
2017-07-19T10:51:11.459Z,1072.1
2017-07-19T10:52:12.926Z,1072.7
2017-07-19T10:53:14.346Z,1073.6
2017-07-19T10:54:15.820Z,1074.0
2017-07-19T10:55:17.314Z,1074.6
2017-07-19T10:56:18.895Z,1075.2
2017-07-19T10:57:20.314Z,1076.4
2017-07-19T10:58:21.774Z,1077.9
2017-07-19T10:59:23.193Z,1079.4
2017-07-19T11:00:24.660Z,1081.1
2017-07-19T11:01:26.076Z,1083.2
2017-07-19T11:02:27.987Z,1085.4
2017-07-19T11:03:29.594Z,1087.8
2017-07-19T11:04:31.009Z,1090.4
2017-07-19T11:05:32.431Z,1092.5
2017-07-19T11:06:33.952Z,1093.6
2017-07-19T11:07:35.372Z,1096.7
2017-07-19T11:08:37.004Z,1099.8
2017-07-19T11:09:38.445Z,1101.8
2017-07-19T11:10:39.878Z,1103.4
2017-07-19T11:11:41.712Z,1104.3
2017-07-19T11:12:43.175Z,1105.5
2017-07-19T11:13:45.391Z,1106.7
2017-07-19T11:14:46.994Z,1108.8
2017-07-19T11:15:48.417Z,1111.1
2017-07-19T11:16:49.963Z,1113.2
2017-07-19T11:17:51.391Z,1114.4
2017-07-19T11:18:52.841Z,1116.3
2017-07-19T11:19:54.267Z,1117.7
2017-07-19T11:20:55.721Z,1119.0
2017-07-19T11:21:57.150Z,1120.3
2017-07-19T11:22:58.603Z,1121.0
2017-07-19T11:24:00.043Z,1121.0
2017-07-19T11:25:01.889Z,1121.0
2017-07-19T11:26:03.320Z,1121.0
2017-07-19T11:27:04.736Z,1120.9
2017-07-19T11:28:06.213Z,1121.1
2017-07-19T11:29:07.645Z,1120.9
2017-07-19T11:30:09.064Z,1120.8
2017-07-19T11:31:10.535Z,1120.2
2017-07-19T11:32:11.962Z,1119.8
2017-07-19T11:33:13.386Z,1119.4
2017-07-19T11:34:14.858Z,1118.7
2017-07-19T11:35:16.283Z,1118.3
2017-07-19T11:36:17.704Z,1117.9
2017-07-19T11:37:19.179Z,1117.7
2017-07-19T11:38:20.629Z,1117.5
2017-07-19T11:39:22.061Z,1117.0
2017-07-19T11:40:23.484Z,1116.3
2017-07-19T11:41:24.909Z,1115.1
2017-07-19T11:42:26.383Z,1114.0
2017-07-19T11:43:27.854Z,1113.8
2017-07-19T11:44:29.249Z,1114.2
2017-07-19T11:45:30.710Z,1114.7
2017-07-19T11:46:32.134Z,1113.5
2017-07-19T11:47:33.583Z,1112.8
2017-07-19T11:48:35.005Z,1112.8
2017-07-19T11:49:36.465Z,1112.9
2017-07-19T11:50:37.888Z,1113.3
2017-07-19T11:51:39.345Z,1113.3
2017-07-19T11:52:40.770Z,1112.7
2017-07-19T11:53:42.226Z,1112.5
2017-07-19T11:54:43.647Z,1111.0
2017-07-19T11:55:45.110Z,1109.8
2017-07-19T11:56:46.539Z,1111.7
2017-07-19T11:57:47.951Z,1111.6
2017-07-19T11:58:49.430Z,1111.1
2017-07-19T11:59:50.856Z,1110.8
2017-07-19T12:00:52.276Z,1108.6
2017-07-19T12:01:53.751Z,1105.8
2017-07-19T12:02:55.172Z,1104.2
2017-07-19T12:03:56.596Z,1102.7
2017-07-19T12:04:58.072Z,1100.2
2017-07-19T12:05:59.499Z,1097.7
2017-07-19T12:07:00.978Z,1095.8
2017-07-19T12:08:02.995Z,1094.7
2017-07-19T12:09:04.414Z,1094.1
2017-07-19T12:10:05.836Z,1093.1
2017-07-19T12:11:07.333Z,1092.0
2017-07-19T12:12:08.755Z,1090.9
2017-07-19T12:13:10.177Z,1089.6
2017-07-19T12:14:11.660Z,1089.2
2017-07-19T12:15:13.127Z,1088.6
2017-07-19T12:16:14.545Z,1087.8
2017-07-19T12:17:16.182Z,1086.3
2017-07-19T12:18:17.605Z,1085.4
2017-07-19T12:19:19.027Z,1084.8
2017-07-19T12:20:20.506Z,1083.1
2017-07-19T12:21:22.042Z,1080.3
2017-07-19T12:22:23.462Z,1078.3
2017-07-19T12:23:25.048Z,1077.0
2017-07-19T12:24:26.469Z,1075.4
2017-07-19T12:25:28.266Z,1072.7
2017-07-19T12:26:29.760Z,1070.5
2017-07-19T12:27:31.186Z,1067.1
2017-07-19T12:28:32.601Z,1063.8
2017-07-19T12:29:34.024Z,1061.0
2017-07-19T12:30:35.440Z,1057.9
2017-07-19T12:31:36.962Z,1054.9
2017-07-19T12:32:38.392Z,1052.9
2017-07-19T12:33:39.804Z,1051.2
2017-07-19T12:34:41.284Z,1049.6
2017-07-19T12:35:42.718Z,1047.6
2017-07-19T12:36:44.127Z,1045.7
2017-07-19T12:37:45.628Z,1043.7
2017-07-19T12:38:47.042Z,1041.1
2017-07-19T12:39:48.482Z,1039.4
2017-07-19T12:40:49.908Z,1038.5
2017-07-19T12:41:51.362Z,1037.8
2017-07-19T12:42:52.798Z,1036.7
2017-07-19T12:43:54.245Z,1035.3
2017-07-19T12:44:55.668Z,1033.6
2017-07-19T12:45:57.122Z,1031.4
2017-07-19T12:46:58.548Z,1029.4